Albury, New South Wales

12:24 AM EST on September 03, 2014 (GMT +1000)
Albury | Change Station
CLOSE
Current Station
Airport
Location: Albury,
Elevation: 541 ft
Nearby Weather Stations

Elev 541 ft 36.07 °S, 146.96 °E | Updated 24 minutes ago

Clear
Clear
37 °F
Feels Like 33 °F
N
6
Wind Variable Wind from SW

Today
High -- | Low -- °F
--% Chance of Precip.
Yesterday
High -- | Low -- °F
Precip. -- in
6:30 AM 5:53 PM
First Quarter, 52% visible
Pressure 30.09 in
Visibility 6.2 miles
Clouds
Windchill 33 °F
Dew Point 34 °F
Humidity 87%
Rainfall 0.00 in
Snow Depth Not available.
UV Not available.
Pollen Not available.
Air Quality Not available.
Flu Activity Not available.
METAR YMAY 021400Z AUTO 23005KT 9999 // NCD 03/01 Q1019

More Conditions Fewer Conditions

Pressure 30.09 in
Visibility 6.2 miles
Clouds
Windchill 33 °F
Dew Point 34 °F
Humidity 87%
Rainfall 0.00 in
Snow Depth Not available.
UV Not available.
Pollen Not available.
Air Quality Not available.
Flu Activity Not available.
METAR YMAY 021400Z AUTO 23005KT 9999 // NCD 03/01 Q1019

More Conditions Fewer Conditions

10-Day Weather Forecast

Almanac

Astronomy

Sep. 03, 2014 Rise Set
Actual Time 6:30 AM EST 5:53 PM EST
Civil Twilight 6:04 AM EST 6:19 PM EST
Nautical Twilight 5:34 AM EST 6:49 PM EST
Astronomical Twilight 5:05 AM EST 7:18 PM EST
Moon 11:38 AM EST (9/3) 1:05 AM EST (9/3)
Length of Visible Light 12h 14m
Length of Day
11h 23m
Tomorrow will be 2m 11s longer.
First Quarter, 52% of the Moon is Illuminated
Sep 2
First Quarter
Sep 8
Full
Sep 15
Last Quarter
Sep 24
New
Oct 1
First Quarter

Yesterday's Extremes

Country Highs Country Lows

Community

WunderPhotos

Upload Photos

1,749,677 photos uploaded!

Nearby

Snow Depth

Not available.

Earthquake Activity

City Distance Mag. Time & Date
No recent earthquake activity has been reported nearby.
Minimum magnitude displayed is 2.5.

Coastal Water Temperatures

Place Temperature
No Stations Reporting

Nearby Weather Stations